Invesco Field (Denver), Colorado
Current Conditions -  °F | °C
As of 11:35 PM on Tuesday 25 Nov 2014 (Local Time) from KBJC Reporting Station
Overcast Overcast  
Wind Chill: 32°   Ceiling: 1100
Heat Index: 32°   Visibility: 10mi
Dew Point: 28°   Wind: 3mph
Humidity: 87%   Direction: 140°SE
Pressure: 30.14"   Gusts: NA
Location:  39.74401°N, 105.0253°W
Report Text: KBJC 260635Z AUTO 14003KT 10SM OVC011 00/M02 A3014 RMK AO2
Loading
Personal Weather Stations






























Interactive Weather Map New forecast layout! Learn more

10-Day Weather Forecast

Advertisements
Track Severe Weather on mobile